sensor_id;sensor_type;location;lat;lon;timestamp;pressure;altitude;pressure_sealevel;temperature;humidity
21240;BME280;10778;48.962;9.018;2022-12-29T00:00:10;98615.94;;;8.76;77.41
21240;BME280;10778;48.962;9.018;2022-12-29T00:02:39;98609.88;;;8.76;77.95
21240;BME280;10778;48.962;9.018;2022-12-29T00:05:05;98602.28;;;8.82;77.30
21240;BME280;10778;48.962;9.018;2022-12-29T00:07:31;98598.94;;;8.80;76.96
21240;BME280;10778;48.962;9.018;2022-12-29T00:09:57;98604.19;;;8.80;76.97
21240;BME280;10778;48.962;9.018;2022-12-29T00:12:23;98588.72;;;8.77;77.62
21240;BME280;10778;48.962;9.018;2022-12-29T00:14:49;98579.91;;;8.78;77.27
21240;BME280;10778;48.962;9.018;2022-12-29T00:17:34;98587.63;;;9.00;76.50
21240;BME280;10778;48.962;9.018;2022-12-29T00:20:00;98585.66;;;9.11;75.85
21240;BME280;10778;48.962;9.018;2022-12-29T00:22:44;98580.66;;;9.18;75.56
21240;BME280;10778;48.962;9.018;2022-12-29T00:25:29;98590.16;;;9.29;75.47
21240;BME280;10778;48.962;9.018;2022-12-29T00:28:14;98584.41;;;9.25;75.20
21240;BME280;10778;48.962;9.018;2022-12-29T00:30:59;98581.25;;;9.12;75.68
21240;BME280;10778;48.962;9.018;2022-12-29T00:33:44;98587.31;;;9.13;75.71
21240;BME280;10778;48.962;9.018;2022-12-29T00:36:32;98580.81;;;9.07;76.51
21240;BME280;10778;48.962;9.018;2022-12-29T00:39:03;98576.28;;;9.09;76.22
21240;BME280;10778;48.962;9.018;2022-12-29T00:41:49;98582.38;;;9.00;76.52
21240;BME280;10778;48.962;9.018;2022-12-29T00:44:33;98580.03;;;8.87;77.64
21240;BME280;10778;48.962;9.018;2022-12-29T00:46:59;98577.25;;;8.98;77.06
21240;BME280;10778;48.962;9.018;2022-12-29T00:49:31;98569.38;;;8.98;77.19
21240;BME280;10778;48.962;9.018;2022-12-29T00:52:03;98569.78;;;9.13;75.73
21240;BME280;10778;48.962;9.018;2022-12-29T00:54:32;98570.19;;;9.08;76.18
21240;BME280;10778;48.962;9.018;2022-12-29T00:56:59;98574.34;;;9.11;76.60
21240;BME280;10778;48.962;9.018;2022-12-29T00:59:25;98576.28;;;9.09;76.73
21240;BME280;10778;48.962;9.018;2022-12-29T01:01:52;98580.97;;;9.05;77.11
21240;BME280;10778;48.962;9.018;2022-12-29T01:04:23;98585.66;;;9.11;77.04
21240;BME280;10778;48.962;9.018;2022-12-29T01:06:50;98586.91;;;9.07;77.78
21240;BME280;10778;48.962;9.018;2022-12-29T01:09:17;98588.84;;;9.05;77.46
21240;BME280;10778;48.962;9.018;2022-12-29T01:12:03;98590.19;;;9.19;77.51
21240;BME280;10778;48.962;9.018;2022-12-29T01:14:30;98603.03;;;9.22;77.63
21240;BME280;10778;48.962;9.018;2022-12-29T01:16:57;98608.16;;;9.24;78.56
21240;BME280;10778;48.962;9.018;2022-12-29T01:19:24;98605.63;;;9.42;76.32
21240;BME280;10778;48.962;9.018;2022-12-29T01:21:50;98603.13;;;9.41;76.29
21240;BME280;10778;48.962;9.018;2022-12-29T01:24:18;98603.16;;;9.31;77.26
21240;BME280;10778;48.962;9.018;2022-12-29T01:26:46;98603.00;;;9.42;76.99
21240;BME280;10778;48.962;9.018;2022-12-29T01:29:12;98604.81;;;9.32;77.64
21240;BME280;10778;48.962;9.018;2022-12-29T01:31:38;98609.19;;;9.41;77.78
21240;BME280;10778;48.962;9.018;2022-12-29T01:34:05;98599.38;;;9.53;77.38
21240;BME280;10778;48.962;9.018;2022-12-29T01:36:32;98601.75;;;9.46;77.88
21240;BME280;10778;48.962;9.018;2022-12-29T01:38:58;98610.44;;;9.47;77.79
21240;BME280;10778;48.962;9.018;2022-12-29T01:41:25;98610.03;;;9.42;78.32
21240;BME280;10778;48.962;9.018;2022-12-29T01:43:54;98613.47;;;9.52;77.94
21240;BME280;10778;48.962;9.018;2022-12-29T01:46:42;98613.50;;;9.32;79.71
21240;BME280;10778;48.962;9.018;2022-12-29T01:49:15;98609.69;;;9.27;80.15
21240;BME280;10778;48.962;9.018;2022-12-29T01:51:51;98602.22;;;9.22;80.13
21240;BME280;10778;48.962;9.018;2022-12-29T01:54:26;98590.34;;;9.18;80.17
21240;BME280;10778;48.962;9.018;2022-12-29T01:56:55;98588.84;;;9.15;80.38
21240;BME280;10778;48.962;9.018;2022-12-29T01:59:27;98595.47;;;9.09;81.24
21240;BME280;10778;48.962;9.018;2022-12-29T02:01:55;98589.25;;;9.01;81.13
21240;BME280;10778;48.962;9.018;2022-12-29T02:04:23;98584.19;;;8.99;80.75
21240;BME280;10778;48.962;9.018;2022-12-29T02:06:58;98580.13;;;9.05;82.37
21240;BME280;10778;48.962;9.018;2022-12-29T02:09:26;98585.84;;;8.90;83.05
21240;BME280;10778;48.962;9.018;2022-12-29T02:11:52;98590.84;;;8.74;83.45
21240;BME280;10778;48.962;9.018;2022-12-29T02:14:19;98581.84;;;8.66;82.83
21240;BME280;10778;48.962;9.018;2022-12-29T02:22:32;98585.94;;;8.30;89.24
21240;BME280;10778;48.962;9.018;2022-12-29T02:35:54;98584.06;;;7.81;91.33
21240;BME280;10778;48.962;9.018;2022-12-29T02:38:38;98572.44;;;7.74;92.11
21240;BME280;10778;48.962;9.018;2022-12-29T02:41:19;98569.25;;;7.70;93.64
21240;BME280;10778;48.962;9.018;2022-12-29T02:43:49;98584.81;;;7.62;95.10
21240;BME280;10778;48.962;9.018;2022-12-29T02:46:33;98583.09;;;7.51;95.64
21240;BME280;10778;48.962;9.018;2022-12-29T02:51:35;98566.81;;;7.47;96.22
21240;BME280;10778;48.962;9.018;2022-12-29T02:54:04;98580.31;;;7.43;96.58
21240;BME280;10778;48.962;9.018;2022-12-29T02:56:49;98580.41;;;7.31;97.85
21240;BME280;10778;48.962;9.018;2022-12-29T02:59:16;98578.59;;;7.32;99.38
21240;BME280;10778;48.962;9.018;2022-12-29T03:05:30;98573.91;;;7.25;98.57
21240;BME280;10778;48.962;9.018;2022-12-29T03:08:08;98558.78;;;7.29;98.90
21240;BME280;10778;48.962;9.018;2022-12-29T03:10:47;98560.66;;;7.27;98.26
21240;BME280;10778;48.962;9.018;2022-12-29T03:16:26;98543.59;;;8.24;86.39
21240;BME280;10778;48.962;9.018;2022-12-29T03:19:05;98536.56;;;8.74;83.10
21240;BME280;10778;48.962;9.018;2022-12-29T03:21:38;98529.72;;;9.11;80.33
21240;BME280;10778;48.962;9.018;2022-12-29T03:24:28;98530.53;;;9.11;80.38
21240;BME280;10778;48.962;9.018;2022-12-29T03:26:59;98537.66;;;8.81;84.52
21240;BME280;10778;48.962;9.018;2022-12-29T03:29:33;98540.84;;;8.36;88.57
21240;BME280;10778;48.962;9.018;2022-12-29T03:32:02;98534.22;;;8.22;90.15
21240;BME280;10778;48.962;9.018;2022-12-29T03:34:30;98525.13;;;8.36;88.28
21240;BME280;10778;48.962;9.018;2022-12-29T03:37:11;98537.22;;;7.88;93.98
21240;BME280;10778;48.962;9.018;2022-12-29T03:39:38;98536.59;;;7.64;95.91
21240;BME280;10778;48.962;9.018;2022-12-29T03:42:10;98534.91;;;7.53;96.87
21240;BME280;10778;48.962;9.018;2022-12-29T03:44:41;98529.09;;;7.50;98.69
21240;BME280;10778;48.962;9.018;2022-12-29T03:47:10;98530.88;;;7.49;98.03
21240;BME280;10778;48.962;9.018;2022-12-29T03:49:37;98531.44;;;7.53;98.38
21240;BME280;10778;48.962;9.018;2022-12-29T03:52:04;98528.88;;;7.73;94.24
21240;BME280;10778;48.962;9.018;2022-12-29T03:54:33;98531.22;;;7.76;94.88
21240;BME280;10778;48.962;9.018;2022-12-29T03:56:59;98531.78;;;7.69;96.09
21240;BME280;10778;48.962;9.018;2022-12-29T03:59:47;98521.66;;;7.55;99.51
21240;BME280;10778;48.962;9.018;2022-12-29T04:02:14;98520.31;;;7.61;99.31
21240;BME280;10778;48.962;9.018;2022-12-29T04:04:41;98524.13;;;7.88;93.87
21240;BME280;10778;48.962;9.018;2022-12-29T04:07:07;98524.81;;;8.00;92.33
21240;BME280;10778;48.962;9.018;2022-12-29T04:09:33;98538.72;;;8.00;92.50
21240;BME280;10778;48.962;9.018;2022-12-29T04:11:59;98535.00;;;7.93;93.40
21240;BME280;10778;48.962;9.018;2022-12-29T04:14:26;98543.25;;;7.78;96.38
21240;BME280;10778;48.962;9.018;2022-12-29T04:16:53;98527.53;;;7.88;96.23
21240;BME280;10778;48.962;9.018;2022-12-29T04:19:22;98524.19;;;7.66;97.04
21240;BME280;10778;48.962;9.018;2022-12-29T04:21:49;98530.66;;;7.62;96.05
21240;BME280;10778;48.962;9.018;2022-12-29T04:24:15;98521.31;;;7.69;94.84
21240;BME280;10778;48.962;9.018;2022-12-29T04:26:41;98510.19;;;7.97;92.41
21240;BME280;10778;48.962;9.018;2022-12-29T04:29:24;98501.81;;;8.52;85.93
21240;BME280;10778;48.962;9.018;2022-12-29T04:32:08;98494.03;;;8.90;83.16
21240;BME280;10778;48.962;9.018;2022-12-29T04:34:38;98479.19;;;9.09;82.21
21240;BME280;10778;48.962;9.018;2022-12-29T04:37:05;98474.41;;;9.22;80.32
21240;BME280;10778;48.962;9.018;2022-12-29T04:39:31;98483.81;;;9.53;78.63
21240;BME280;10778;48.962;9.018;2022-12-29T04:41:59;98482.56;;;9.57;78.95
21240;BME280;10778;48.962;9.018;2022-12-29T04:44:25;98489.03;;;9.63;78.23
21240;BME280;10778;48.962;9.018;2022-12-29T04:47:20;98475.88;;;9.63;77.93
21240;BME280;10778;48.962;9.018;2022-12-29T04:49:56;98494.59;;;9.78;78.08
21240;BME280;10778;48.962;9.018;2022-12-29T04:52:38;98491.59;;;9.91;76.90
21240;BME280;10778;48.962;9.018;2022-12-29T04:55:06;98484.25;;;9.94;77.22
21240;BME280;10778;48.962;9.018;2022-12-29T04:57:32;98487.47;;;10.06;75.64
21240;BME280;10778;48.962;9.018;2022-12-29T04:59:59;98483.19;;;10.05;76.31
21240;BME280;10778;48.962;9.018;2022-12-29T05:02:26;98487.25;;;10.00;76.84
21240;BME280;10778;48.962;9.018;2022-12-29T05:04:54;98494.09;;;9.92;76.71
21240;BME280;10778;48.962;9.018;2022-12-29T05:07:20;98487.25;;;10.00;76.78
21240;BME280;10778;48.962;9.018;2022-12-29T05:09:47;98487.72;;;9.95;77.68
21240;BME280;10778;48.962;9.018;2022-12-29T05:12:14;98494.47;;;9.98;77.33
21240;BME280;10778;48.962;9.018;2022-12-29T05:14:51;98501.50;;;9.79;78.22
21240;BME280;10778;48.962;9.018;2022-12-29T05:17:18;98507.34;;;9.73;78.67
21240;BME280;10778;48.962;9.018;2022-12-29T05:19:45;98509.75;;;9.84;78.00
21240;BME280;10778;48.962;9.018;2022-12-29T05:22:11;98524.84;;;9.82;78.56
21240;BME280;10778;48.962;9.018;2022-12-29T05:24:38;98505.84;;;9.70;79.29
21240;BME280;10778;48.962;9.018;2022-12-29T05:27:05;98503.94;;;9.62;80.00
21240;BME280;10778;48.962;9.018;2022-12-29T05:29:48;98500.75;;;9.87;78.07
21240;BME280;10778;48.962;9.018;2022-12-29T05:32:14;98496.25;;;9.79;78.89
21240;BME280;10778;48.962;9.018;2022-12-29T05:34:42;98488.28;;;9.89;78.87
21240;BME280;10778;48.962;9.018;2022-12-29T05:37:08;98500.44;;;9.90;78.72
21240;BME280;10778;48.962;9.018;2022-12-29T05:39:34;98507.84;;;10.04;77.96
21240;BME280;10778;48.962;9.018;2022-12-29T05:42:03;98504.28;;;9.95;78.98
21240;BME280;10778;48.962;9.018;2022-12-29T05:44:52;98501.53;;;9.97;78.33
21240;BME280;10778;48.962;9.018;2022-12-29T05:47:51;98501.97;;;9.92;78.93
21240;BME280;10778;48.962;9.018;2022-12-29T05:50:40;98499.94;;;9.86;79.36
21240;BME280;10778;48.962;9.018;2022-12-29T05:53:12;98492.50;;;9.81;79.01
21240;BME280;10778;48.962;9.018;2022-12-29T05:55:39;98484.38;;;9.75;79.96
21240;BME280;10778;48.962;9.018;2022-12-29T05:58:05;98492.31;;;9.65;80.30
21240;BME280;10778;48.962;9.018;2022-12-29T06:00:31;98478.81;;;9.78;80.21
21240;BME280;10778;48.962;9.018;2022-12-29T06:02:58;98482.13;;;9.80;79.60
21240;BME280;10778;48.962;9.018;2022-12-29T06:05:24;98488.66;;;9.76;80.00
21240;BME280;10778;48.962;9.018;2022-12-29T06:07:50;98490.31;;;9.77;79.64
21240;BME280;10778;48.962;9.018;2022-12-29T06:10:17;98491.34;;;9.66;80.91
21240;BME280;10778;48.962;9.018;2022-12-29T06:12:57;98491.09;;;9.59;81.32
21240;BME280;10778;48.962;9.018;2022-12-29T06:15:23;98500.25;;;9.55;81.75
21240;BME280;10778;48.962;9.018;2022-12-29T06:17:50;98500.25;;;9.55;81.84
21240;BME280;10778;48.962;9.018;2022-12-29T06:20:17;98497.94;;;9.52;81.91
21240;BME280;10778;48.962;9.018;2022-12-29T06:22:43;98494.59;;;9.50;82.11
21240;BME280;10778;48.962;9.018;2022-12-29T06:25:09;98489.75;;;9.55;82.30
21240;BME280;10778;48.962;9.018;2022-12-29T06:27:36;98482.34;;;9.41;83.07
21240;BME280;10778;48.962;9.018;2022-12-29T06:30:02;98479.19;;;9.37;83.22
21240;BME280;10778;48.962;9.018;2022-12-29T06:32:29;98482.28;;;9.22;84.12
21240;BME280;10778;48.962;9.018;2022-12-29T06:35:00;98489.59;;;9.29;84.21
21240;BME280;10778;48.962;9.018;2022-12-29T06:37:26;98494.59;;;9.22;83.78
21240;BME280;10778;48.962;9.018;2022-12-29T06:39:52;98498.97;;;9.31;83.86
21240;BME280;10778;48.962;9.018;2022-12-29T06:42:20;98500.34;;;9.35;83.39
21240;BME280;10778;48.962;9.018;2022-12-29T06:45:07;98492.41;;;9.17;84.21
21240;BME280;10778;48.962;9.018;2022-12-29T06:47:34;98491.59;;;9.07;84.78
21240;BME280;10778;48.962;9.018;2022-12-29T06:50:00;98488.72;;;9.10;84.59
21240;BME280;10778;48.962;9.018;2022-12-29T06:52:26;98491.22;;;9.02;84.91
21240;BME280;10778;48.962;9.018;2022-12-29T06:54:54;98491.44;;;9.18;83.89
21240;BME280;10778;48.962;9.018;2022-12-29T06:57:21;98480.50;;;9.23;83.74
21240;BME280;10778;48.962;9.018;2022-12-29T06:59:47;98480.63;;;9.21;83.62
21240;BME280;10778;48.962;9.018;2022-12-29T07:02:13;98476.63;;;9.27;83.52
21240;BME280;10778;48.962;9.018;2022-12-29T07:04:45;98465.31;;;9.27;83.67
21240;BME280;10778;48.962;9.018;2022-12-29T07:07:11;98470.88;;;9.42;83.02
21240;BME280;10778;48.962;9.018;2022-12-29T07:09:37;98470.88;;;9.42;82.95
21240;BME280;10778;48.962;9.018;2022-12-29T07:12:03;98475.28;;;9.51;81.88
21240;BME280;10778;48.962;9.018;2022-12-29T07:14:29;98474.66;;;9.57;81.12
21240;BME280;10778;48.962;9.018;2022-12-29T07:16:55;98480.22;;;9.54;81.48
21240;BME280;10778;48.962;9.018;2022-12-29T07:19:21;98482.69;;;9.56;81.60
21240;BME280;10778;48.962;9.018;2022-12-29T07:21:47;98477.16;;;9.59;81.03
21240;BME280;10778;48.962;9.018;2022-12-29T07:24:13;98477.47;;;9.74;80.40
21240;BME280;10778;48.962;9.018;2022-12-29T07:26:39;98484.19;;;9.86;79.47
21240;BME280;10778;48.962;9.018;2022-12-29T07:29:05;98485.28;;;9.84;79.92
21240;BME280;10778;48.962;9.018;2022-12-29T07:31:31;98488.69;;;9.94;78.99
21240;BME280;10778;48.962;9.018;2022-12-29T07:33:57;98485.97;;;10.22;77.29
21240;BME280;10778;48.962;9.018;2022-12-29T07:36:23;98485.31;;;10.20;77.36
21240;BME280;10778;48.962;9.018;2022-12-29T07:38:49;98490.50;;;10.12;77.94
21240;BME280;10778;48.962;9.018;2022-12-29T07:41:15;98498.09;;;10.15;77.48
21240;BME280;10778;48.962;9.018;2022-12-29T07:43:41;98498.81;;;10.25;76.23
21240;BME280;10778;48.962;9.018;2022-12-29T07:46:42;98507.00;;;10.22;77.26
21240;BME280;10778;48.962;9.018;2022-12-29T07:49:08;98503.63;;;10.30;76.39
21240;BME280;10778;48.962;9.018;2022-12-29T07:51:34;98498.59;;;10.36;76.17
21240;BME280;10778;48.962;9.018;2022-12-29T07:54:00;98501.47;;;10.43;75.88
21240;BME280;10778;48.962;9.018;2022-12-29T07:56:27;98502.69;;;10.49;75.55
21240;BME280;10778;48.962;9.018;2022-12-29T07:58:53;98506.97;;;10.50;74.88
21240;BME280;10778;48.962;9.018;2022-12-29T08:01:19;98505.81;;;10.52;75.22
21240;BME280;10778;48.962;9.018;2022-12-29T08:03:45;98508.66;;;10.59;74.37
21240;BME280;10778;48.962;9.018;2022-12-29T08:06:11;98508.38;;;10.62;74.63
21240;BME280;10778;48.962;9.018;2022-12-29T08:08:37;98512.00;;;10.43;75.61
21240;BME280;10778;48.962;9.018;2022-12-29T08:11:03;98512.53;;;10.47;75.13
21240;BME280;10778;48.962;9.018;2022-12-29T08:13:30;98509.81;;;10.57;74.06
21240;BME280;10778;48.962;9.018;2022-12-29T08:15:57;98513.47;;;10.64;74.28
21240;BME280;10778;48.962;9.018;2022-12-29T08:18:24;98513.16;;;10.67;74.31
21240;BME280;10778;48.962;9.018;2022-12-29T08:20:50;98514.44;;;10.63;74.42
21240;BME280;10778;48.962;9.018;2022-12-29T08:23:16;98520.16;;;10.58;74.72
21240;BME280;10778;48.962;9.018;2022-12-29T08:25:42;98517.75;;;10.65;73.98
21240;BME280;10778;48.962;9.018;2022-12-29T08:28:08;98509.19;;;10.63;73.99
21240;BME280;10778;48.962;9.018;2022-12-29T08:30:35;98511.00;;;10.62;73.77
21240;BME280;10778;48.962;9.018;2022-12-29T08:33:01;98510.53;;;10.67;74.32
21240;BME280;10778;48.962;9.018;2022-12-29T08:35:27;98509.25;;;10.71;73.07
21240;BME280;10778;48.962;9.018;2022-12-29T08:37:53;98520.56;;;10.63;74.33
21240;BME280;10778;48.962;9.018;2022-12-29T08:40:19;98523.13;;;10.81;72.81
21240;BME280;10778;48.962;9.018;2022-12-29T08:42:45;98526.50;;;10.92;72.66
21240;BME280;10778;48.962;9.018;2022-12-29T08:45:11;98526.19;;;10.95;71.99
21240;BME280;10778;48.962;9.018;2022-12-29T08:47:37;98535.94;;;11.03;71.18
21240;BME280;10778;48.962;9.018;2022-12-29T08:50:04;98530.72;;;11.11;71.13
21240;BME280;10778;48.962;9.018;2022-12-29T08:52:30;98533.94;;;11.23;71.70
21240;BME280;10778;48.962;9.018;2022-12-29T08:54:56;98540.34;;;11.29;70.83
21240;BME280;10778;48.962;9.018;2022-12-29T08:57:22;98541.00;;;11.22;71.14
21240;BME280;10778;48.962;9.018;2022-12-29T09:00:04;98540.53;;;11.27;71.51
21240;BME280;10778;48.962;9.018;2022-12-29T09:02:31;98547.09;;;11.23;71.18
21240;BME280;10778;48.962;9.018;2022-12-29T09:04:57;98547.66;;;11.35;70.84
21240;BME280;10778;48.962;9.018;2022-12-29T09:07:24;98541.72;;;11.33;70.71
21240;BME280;10778;48.962;9.018;2022-12-29T09:09:50;98554.25;;;11.39;69.93
21240;BME280;10778;48.962;9.018;2022-12-29T09:12:17;98546.97;;;11.33;70.54
21240;BME280;10778;48.962;9.018;2022-12-29T09:14:45;98543.19;;;11.35;70.48
21240;BME280;10778;48.962;9.018;2022-12-29T09:17:11;98545.88;;;11.44;70.11
21240;BME280;10778;48.962;9.018;2022-12-29T09:19:56;98557.28;;;11.52;70.31
21240;BME280;10778;48.962;9.018;2022-12-29T09:22:22;98559.91;;;11.52;70.26
21240;BME280;10778;48.962;9.018;2022-12-29T09:24:48;98546.28;;;11.57;69.57
21240;BME280;10778;48.962;9.018;2022-12-29T09:27:14;98559.75;;;11.54;69.85
21240;BME280;10778;48.962;9.018;2022-12-29T09:29:40;98548.41;;;11.62;69.13
21240;BME280;10778;48.962;9.018;2022-12-29T09:32:06;98549.59;;;11.67;69.90
21240;BME280;10778;48.962;9.018;2022-12-29T09:34:33;98554.72;;;11.69;70.02
21240;BME280;10778;48.962;9.018;2022-12-29T09:36:59;98550.63;;;11.75;68.98
21240;BME280;10778;48.962;9.018;2022-12-29T09:39:26;98560.38;;;11.83;69.15
21240;BME280;10778;48.962;9.018;2022-12-29T09:47:17;98546.63;;;12.14;68.01
21240;BME280;10778;48.962;9.018;2022-12-29T09:49:48;98541.38;;;12.22;67.92
21240;BME280;10778;48.962;9.018;2022-12-29T09:52:20;98544.34;;;12.19;68.45
21240;BME280;10778;48.962;9.018;2022-12-29T09:54:56;98550.94;;;12.23;67.72
21240;BME280;10778;48.962;9.018;2022-12-29T09:57:26;98555.22;;;12.16;68.68
21240;BME280;10778;48.962;9.018;2022-12-29T10:00:02;98560.78;;;12.04;69.15
21240;BME280;10778;48.962;9.018;2022-12-29T10:02:41;98560.66;;;12.14;69.03
21240;BME280;10778;48.962;9.018;2022-12-29T10:10:45;98553.28;;;12.51;68.54
21240;BME280;10778;48.962;9.018;2022-12-29T10:13:35;98549.16;;;12.65;67.18
21240;BME280;10778;48.962;9.018;2022-12-29T10:16:18;98556.69;;;14.14;63.64
21240;BME280;10778;48.962;9.018;2022-12-29T10:19:20;98558.72;;;14.04;63.04
21240;BME280;10778;48.962;9.018;2022-12-29T10:24:46;98562.31;;;13.06;65.89
21240;BME280;10778;48.962;9.018;2022-12-29T10:27:16;98570.91;;;13.00;67.33
21240;BME280;10778;48.962;9.018;2022-12-29T10:29:48;98568.28;;;12.84;67.48
21240;BME280;10778;48.962;9.018;2022-12-29T10:32:34;98565.63;;;12.92;67.45
21240;BME280;10778;48.962;9.018;2022-12-29T10:35:41;98568.94;;;12.86;67.97
21240;BME280;10778;48.962;9.018;2022-12-29T10:38:28;98549.78;;;12.92;67.61
21240;BME280;10778;48.962;9.018;2022-12-29T10:41:11;98562.50;;;12.80;68.05
21240;BME280;10778;48.962;9.018;2022-12-29T10:43:47;98558.06;;;12.72;68.98
21240;BME280;10778;48.962;9.018;2022-12-29T10:46:21;98554.25;;;12.66;68.63
21240;BME280;10778;48.962;9.018;2022-12-29T10:48:48;98558.41;;;12.77;68.35
21240;BME280;10778;48.962;9.018;2022-12-29T10:51:21;98548.16;;;12.99;68.79
21240;BME280;10778;48.962;9.018;2022-12-29T10:54:03;98547.50;;;13.62;66.58
21240;BME280;10778;48.962;9.018;2022-12-29T10:56:35;98541.09;;;14.66;61.99
21240;BME280;10778;48.962;9.018;2022-12-29T10:59:16;98537.75;;;15.26;60.07
21240;BME280;10778;48.962;9.018;2022-12-29T11:01:59;98536.00;;;15.03;61.80
21240;BME280;10778;48.962;9.018;2022-12-29T11:05:00;98537.59;;;14.27;63.51
21240;BME280;10778;48.962;9.018;2022-12-29T11:07:28;98546.41;;;14.43;63.65
21240;BME280;10778;48.962;9.018;2022-12-29T11:10:16;98537.72;;;14.57;61.89
21240;BME280;10778;48.962;9.018;2022-12-29T11:12:56;98548.94;;;13.81;64.80
21240;BME280;10778;48.962;9.018;2022-12-29T11:15:23;98566.22;;;13.52;65.83
21240;BME280;10778;48.962;9.018;2022-12-29T11:17:58;98563.63;;;13.19;66.65
21240;BME280;10778;48.962;9.018;2022-12-29T11:20:34;98559.69;;;13.15;66.04
21240;BME280;10778;48.962;9.018;2022-12-29T11:23:02;98558.19;;;13.20;66.58
21240;BME280;10778;48.962;9.018;2022-12-29T11:25:29;98545.16;;;13.02;65.70
21240;BME280;10778;48.962;9.018;2022-12-29T11:28:13;98556.56;;;12.94;66.44
21240;BME280;10778;48.962;9.018;2022-12-29T11:30:40;98551.47;;;12.85;65.88
21240;BME280;10778;48.962;9.018;2022-12-29T11:33:08;98555.09;;;12.84;65.65
21240;BME280;10778;48.962;9.018;2022-12-29T11:35:39;98555.59;;;12.79;66.07
21240;BME280;10778;48.962;9.018;2022-12-29T11:38:18;98557.25;;;12.72;66.88
21240;BME280;10778;48.962;9.018;2022-12-29T11:40:47;98553.44;;;12.74;66.39
21240;BME280;10778;48.962;9.018;2022-12-29T11:43:23;98554.25;;;12.66;66.92
21240;BME280;10778;48.962;9.018;2022-12-29T11:45:53;98551.16;;;12.63;67.29
21240;BME280;10778;48.962;9.018;2022-12-29T11:48:20;98554.94;;;12.60;66.83
21240;BME280;10778;48.962;9.018;2022-12-29T11:50:52;98555.94;;;12.68;67.07
21240;BME280;10778;48.962;9.018;2022-12-29T11:56:06;98538.78;;;12.55;66.72
21240;BME280;10778;48.962;9.018;2022-12-29T11:58:36;98545.19;;;12.52;67.33
21240;BME280;10778;48.962;9.018;2022-12-29T12:04:26;98544.53;;;12.42;68.59
21240;BME280;10778;48.962;9.018;2022-12-29T12:07:17;98548.81;;;12.51;67.76
21240;BME280;10778;48.962;9.018;2022-12-29T12:09:49;98563.19;;;12.57;67.25
21240;BME280;10778;48.962;9.018;2022-12-29T12:14:59;98544.34;;;13.18;65.69
21240;BME280;10778;48.962;9.018;2022-12-29T12:17:55;98547.06;;;13.50;64.76
21240;BME280;10778;48.962;9.018;2022-12-29T12:20:32;98549.22;;;13.86;64.12
21240;BME280;10778;48.962;9.018;2022-12-29T12:26:21;98546.78;;;13.28;65.38
21240;BME280;10778;48.962;9.018;2022-12-29T12:29:01;98535.66;;;13.49;64.44
21240;BME280;10778;48.962;9.018;2022-12-29T12:31:51;98538.84;;;13.45;64.80
21240;BME280;10778;48.962;9.018;2022-12-29T12:34:33;98535.44;;;12.94;67.75
21240;BME280;10778;48.962;9.018;2022-12-29T12:46:03;98533.00;;;12.51;70.70
21240;BME280;10778;48.962;9.018;2022-12-29T12:48:49;98537.13;;;12.71;71.06
21240;BME280;10778;48.962;9.018;2022-12-29T13:07:25;98521.09;;;12.72;69.81
21240;BME280;10778;48.962;9.018;2022-12-29T13:21:02;98499.03;;;13.78;66.88
21240;BME280;10778;48.962;9.018;2022-12-29T13:23:50;98497.28;;;13.62;65.69
21240;BME280;10778;48.962;9.018;2022-12-29T13:26:37;98508.75;;;13.37;67.80
21240;BME280;10778;48.962;9.018;2022-12-29T13:29:36;98506.41;;;12.94;68.02
21240;BME280;10778;48.962;9.018;2022-12-29T13:32:23;98507.59;;;12.67;68.95
21240;BME280;10778;48.962;9.018;2022-12-29T13:34:56;98507.09;;;12.38;70.19
21240;BME280;10778;48.962;9.018;2022-12-29T13:37:29;98510.09;;;12.35;70.95
21240;BME280;10778;48.962;9.018;2022-12-29T13:40:11;98525.41;;;12.57;69.59
21240;BME280;10778;48.962;9.018;2022-12-29T13:42:39;98517.16;;;12.85;68.79
21240;BME280;10778;48.962;9.018;2022-12-29T13:45:10;98503.78;;;12.78;68.52
21240;BME280;10778;48.962;9.018;2022-12-29T13:47:45;98514.50;;;12.93;68.99
21240;BME280;10778;48.962;9.018;2022-12-29T13:50:19;98519.03;;;13.24;67.58
21240;BME280;10778;48.962;9.018;2022-12-29T13:52:51;98511.50;;;13.61;66.64
21240;BME280;10778;48.962;9.018;2022-12-29T14:00:22;98507.94;;;12.47;70.87
21240;BME280;10778;48.962;9.018;2022-12-29T14:03:17;98522.44;;;12.27;71.74
21240;BME280;10778;48.962;9.018;2022-12-29T14:06:03;98525.38;;;12.23;71.62
21240;BME280;10778;48.962;9.018;2022-12-29T14:08:33;98535.41;;;12.03;73.49
21240;BME280;10778;48.962;9.018;2022-12-29T14:11:07;98537.31;;;11.85;76.03
21240;BME280;10778;48.962;9.018;2022-12-29T14:13:38;98539.38;;;11.64;77.67
21240;BME280;10778;48.962;9.018;2022-12-29T14:16:06;98534.09;;;11.56;80.10
21240;BME280;10778;48.962;9.018;2022-12-29T14:18:34;98550.84;;;11.20;82.90
21240;BME280;10778;48.962;9.018;2022-12-29T14:23:39;98558.34;;;11.07;84.90
21240;BME280;10778;48.962;9.018;2022-12-29T14:28:39;98558.00;;;10.84;86.91
21240;BME280;10778;48.962;9.018;2022-12-29T14:33:41;98555.88;;;10.61;89.50
21240;BME280;10778;48.962;9.018;2022-12-29T14:39:00;98554.13;;;10.51;92.12
21240;BME280;10778;48.962;9.018;2022-12-29T14:41:33;98541.09;;;10.32;95.22
21240;BME280;10778;48.962;9.018;2022-12-29T14:49:24;98544.41;;;10.16;96.77
21240;BME280;10778;48.962;9.018;2022-12-29T14:51:54;98543.75;;;10.14;97.93
21240;BME280;10778;48.962;9.018;2022-12-29T14:57:08;98534.94;;;10.23;97.22
21240;BME280;10778;48.962;9.018;2022-12-29T14:59:36;98541.13;;;10.14;97.94
21240;BME280;10778;48.962;9.018;2022-12-29T15:02:04;98548.47;;;10.10;98.83
21240;BME280;10778;48.962;9.018;2022-12-29T15:04:39;98551.53;;;10.05;99.84
21240;BME280;10778;48.962;9.018;2022-12-29T15:07:09;98544.56;;;9.96;100.00
21240;BME280;10778;48.962;9.018;2022-12-29T15:09:42;98551.22;;;9.90;100.00
21240;BME280;10778;48.962;9.018;2022-12-29T15:12:35;98588.09;;;9.71;100.00
21240;BME280;10778;48.962;9.018;2022-12-29T15:15:17;98614.44;;;9.51;100.00
21240;BME280;10778;48.962;9.018;2022-12-29T15:17:44;98629.69;;;9.37;100.00
21240;BME280;10778;48.962;9.018;2022-12-29T15:20:29;98642.41;;;9.22;100.00